WAJJ Airport Information

Runway Information
Runway 12 Length 7161 ft width 148 ft
Elevation 292 ft Threshold 0 ft Heading 127
Runway 30 Length 7161 ft Width 148 ft
Elevation 289 ft Threshold 0 ft Heading 307
Airport Frequencies
Type APP Name JAYAPURA A Frequency 119.1 MHZ
Type ATIS Name ATIS Frequency 128.8 MHZ
Type INFO Name JAYAPURA I Frequency 295.6 MHZ
Type TWR Name TWR Frequency 118.1 MHZ
Airport Navaids
Type VOR-DME Name Jayapura Frequency 116200 KHZ
Type NDB Name Jayapura Frequency 395 KHZ
Airport Weather Information & NOTAM
ADDS - METARS form results

(1538 UTC 04 April 2020)
Data provider http://aviationweather.gov/metar/data/
 
METAR text: WAJJ 041530Z 00000KT 9999 FEW012 25/22 Q1009 NOSIG
Conditions at: WAJJ (JAYAPURA/SENTANI, ID) observed 1530 UTC 04 April 2020
Temperature: 25.0°C (77°F)
Dewpoint: 22.0°C (72°F) [RH = 83%]
Pressure (altimeter): 29.79 inches Hg (1009.0 mb)
Winds: calm
Visibility: 6 or more miles (10+ km)
Ceiling: at least 12,000 feet AGL
Clouds: few clouds at 1200 feet AGL
Weather: no significant weather observed at this time

METAR text: WAJJ 041500Z 00000KT 9999 FEW012 25/22 Q1010 NOSIG
Conditions at: WAJJ (JAYAPURA/SENTANI, ID) observed 1500 UTC 04 April 2020
Temperature: 25.0°C (77°F)
Dewpoint: 22.0°C (72°F) [RH = 83%]
Pressure (altimeter): 29.82 inches Hg (1010.0 mb)
Winds: calm
Visibility: 6 or more miles (10+ km)
Ceiling: at least 12,000 feet AGL
Clouds: few clouds at 1200 feet AGL
Weather: no significant weather observed at this time